Time;durP1;ratioP1;P1;durP2;ratioP2;P2;SDS_P1;SDS_P2;PMS_P1;PMS_P2;Temp;Humidity;BMP_temperature;BMP_pressure;BME280_temperature;BME280_humidity;BME280_pressure;Samples;Min_cycle;Max_cycle;Signal;HPM_P1;HPM_P2
2021/03/04 01:17:20;;;;;;;120.97;56.33;;;11.80;99.90;;;;;;6120802;23;20202;-94
2021/03/04 01:20:16;;;;;;;;;;;;;;;;;;;;;
2021/03/04 01:26:58;;;;;;;;;;;;;;;;;;;;;
2021/03/04 01:40:23;;;;;;;;;;;;;;;;;;;;;
2021/03/04 01:43:09;;;;;;;110.80;50.53;;;11.70;99.90;;;;;;6122162;23;20149;-94
2021/03/04 01:46:18;;;;;;;105.27;50.63;;;11.70;99.90;;;;;;6099818;23;20555;-94
2021/03/04 01:48:46;;;;;;;101.23;48.73;;;11.70;99.90;;;;;;6011962;23;20157;-93
2021/03/04 01:51:42;;;;;;;;;;;;;;;;;;;;;
2021/03/04 04:30:32;;;;;;;;;;;;;;;;;;;;;
2021/03/04 04:48:14;;;;;;;;;;;;;;;;;;;;;
2021/03/04 04:50:57;;;;;;;;;;;;;;;;;;;;;
2021/03/04 04:53:38;;;;;;;;;;;;;;;;;;;;;
2021/03/04 05:03:21;;;;;;;;;;;;;;;;;;;;;
2021/03/04 05:10:37;;;;;;;;;;;;;;;;;;;;;
2021/03/04 05:20:53;;;;;;;;;;;;;;;;;;;;;
2021/03/04 05:24:31;;;;;;;;;;;;;;;;;;;;;
2021/03/04 05:27:32;;;;;;;;;;;;;;;;;;;;;
2021/03/04 05:30:57;;;;;;;;;;;;;;;;;;;;;
2021/03/04 05:37:49;;;;;;;;;;;;;;;;;;;;;
2021/03/04 05:40:40;;;;;;;;;;;;;;;;;;;;;
2021/03/04 05:43:42;;;;;;;;;;;;;;;;;;;;;
2021/03/04 05:47:10;;;;;;;102.60;43.53;;;10.20;99.90;;;;;;6065904;23;20210;-95
2021/03/04 05:54:26;;;;;;;;;;;;;;;;;;;;;
2021/03/04 06:53:20;;;;;;;178.40;51.17;;;10.60;99.90;;;;;;6248318;22;20599;-92
2021/03/04 06:56:04;;;;;;;186.70;50.93;;;10.50;99.90;;;;;;6118556;23;20175;-91
2021/03/04 06:58:42;;;;;;;175.80;51.67;;;10.50;99.90;;;;;;6118353;22;20648;-91
2021/03/04 07:01:17;;;;;;;177.60;50.17;;;10.40;99.90;;;;;;6117613;23;20151;-91
2021/03/04 07:03:44;;;;;;;175.17;51.17;;;10.30;99.90;;;;;;6117351;23;20190;-90
2021/03/04 07:06:16;;;;;;;173.60;49.37;;;10.40;99.90;;;;;;6117709;23;20139;-91
2021/03/04 07:08:47;;;;;;;160.77;48.67;;;10.30;99.90;;;;;;6117500;23;20189;-91
2021/03/04 07:11:21;;;;;;;171.07;49.47;;;10.20;99.90;;;;;;6117981;23;20155;-90
2021/03/04 07:13:47;;;;;;;163.33;49.80;;;10.20;99.90;;;;;;6117679;23;20151;-91
2021/03/04 07:16:45;;;;;;;154.17;49.73;;;10.20;99.90;;;;;;6116555;23;20183;-90
2021/03/04 07:19:46;;;;;;;151.17;47.47;;;10.20;99.90;;;;;;6116856;23;20234;-92
2021/03/04 07:22:12;;;;;;;131.63;43.03;;;10.30;99.90;;;;;;6114480;23;20159;-90
2021/03/04 07:24:39;;;;;;;126.60;42.73;;;10.20;99.90;;;;;;6114133;23;20143;-90
2021/03/04 07:27:07;;;;;;;113.90;40.67;;;10.20;99.90;;;;;;6217085;23;20173;-91
2021/03/04 07:29:36;;;;;;;111.90;40.27;;;10.30;99.90;;;;;;6116492;23;20179;-91
2021/03/04 07:32:06;;;;;;;109.77;41.20;;;10.20;99.90;;;;;;6216584;23;20574;-90
2021/03/04 07:34:38;;;;;;;98.83;37.77;;;10.10;99.90;;;;;;6114044;23;20612;-91
2021/03/04 07:37:04;;;;;;;82.77;36.17;;;10.00;99.90;;;;;;6114250;23;20152;-91
2021/03/04 07:39:32;;;;;;;99.87;35.87;;;10.10;99.90;;;;;;6114539;23;20188;-90
2021/03/04 07:41:57;;;;;;;94.63;32.33;;;10.30;99.90;;;;;;6113156;23;20202;-91
2021/03/04 07:44:29;;;;;;;72.47;31.63;;;10.20;99.90;;;;;;6112654;23;20151;-91
2021/03/04 07:46:57;;;;;;;75.60;31.47;;;10.20;99.90;;;;;;6210658;23;20631;-91
2021/03/04 07:49:36;;;;;;;81.70;30.47;;;10.30;99.90;;;;;;6113503;23;20155;-91
2021/03/04 07:52:17;;;;;;;79.23;29.80;;;10.30;99.90;;;;;;6113914;23;20179;-91
2021/03/04 07:54:48;;;;;;;64.83;28.73;;;10.20;99.90;;;;;;6116818;23;20547;-91
2021/03/04 07:57:18;;;;;;;69.93;28.40;;;10.10;99.90;;;;;;6118657;23;20162;-90
2021/03/04 07:59:53;;;;;;;72.40;28.03;;;10.10;99.90;;;;;;6117761;23;20197;-92
2021/03/04 08:02:35;;;;;;;72.90;28.03;;;10.30;99.90;;;;;;6117256;23;20146;-91
2021/03/04 08:05:16;;;;;;;60.30;25.60;;;10.40;99.90;;;;;;6116538;23;20615;-91
2021/03/04 08:07:50;;;;;;;60.07;24.40;;;10.40;99.90;;;;;;6114859;23;20229;-91
2021/03/04 08:10:21;;;;;;;57.60;23.13;;;10.40;99.90;;;;;;6113952;23;20163;-91
2021/03/04 08:13:00;;;;;;;56.60;25.00;;;10.20;99.90;;;;;;6115807;23;20218;-91
2021/03/04 08:15:40;;;;;;;55.90;24.53;;;10.00;99.90;;;;;;6118079;23;20205;-91
2021/03/04 08:18:23;;;;;;;49.03;21.73;;;9.90;99.90;;;;;;6118454;23;20511;-90
2021/03/04 08:20:51;;;;;;;54.57;22.50;;;10.20;99.90;;;;;;6095086;23;20209;-90
2021/03/04 08:23:21;;;;;;;59.10;23.20;;;10.20;99.90;;;;;;6119446;23;20158;-90
2021/03/04 08:25:48;;;;;;;65.37;26.60;;;10.30;99.90;;;;;;6119362;23;20141;-90
2021/03/04 08:28:23;;;;;;;63.10;25.53;;;10.30;99.90;;;;;;6218730;23;20211;-90
2021/03/04 08:30:49;;;;;;;62.27;27.60;;;10.10;99.90;;;;;;6216930;23;20234;-90
2021/03/04 08:33:14;;;;;;;68.77;27.17;;;9.90;99.90;;;;;;6219808;23;20174;-89
2021/03/04 08:35:47;;;;;;;62.37;27.53;;;9.90;99.90;;;;;;6115996;23;20175;-89
2021/03/04 08:38:19;;;;;;;59.23;26.30;;;9.80;99.90;;;;;;6116189;23;20254;-90
2021/03/04 08:40:53;;;;;;;63.53;25.27;;;9.90;99.90;;;;;;6114934;23;20154;-90
2021/03/04 08:43:23;;;;;;;51.97;23.50;;;10.10;99.90;;;;;;6124862;23;20148;-91
2021/03/04 08:46:01;;;;;;;52.73;23.87;;;10.00;99.90;;;;;;6124235;23;20162;-90
2021/03/04 08:48:27;;;;;;;54.40;25.10;;;9.90;99.90;;;;;;6221571;23;20159;-89
2021/03/04 08:50:55;;;;;;;53.80;23.03;;;9.90;99.90;;;;;;6120600;23;20163;-90
2021/03/04 08:53:48;;;;;;;52.67;23.17;;;10.10;99.90;;;;;;6117107;23;20195;-92
2021/03/04 08:56:13;;;;;;;47.17;22.00;;;10.10;99.90;;;;;;6117739;23;20245;-91
2021/03/04 08:58:43;;;;;;;52.70;24.20;;;10.10;99.90;;;;;;6114755;23;20246;-90
2021/03/04 09:01:09;;;;;;;50.20;23.63;;;10.00;99.90;;;;;;6115871;23;20608;-90
2021/03/04 09:03:40;;;;;;;52.53;24.50;;;10.10;99.90;;;;;;6114339;23;20190;-90
2021/03/04 09:06:16;;;;;;;59.70;24.90;;;10.30;99.90;;;;;;6117615;23;20167;-90
2021/03/04 09:08:47;;;;;;;104.17;28.33;;;10.30;99.90;;;;;;6115531;23;20147;-90
2021/03/04 09:11:34;;;;;;;73.20;27.90;;;10.30;99.90;;;;;;6116412;23;20154;-89
2021/03/04 09:14:04;;;;;;;83.77;28.80;;;10.10;99.90;;;;;;6117049;23;20156;-90
2021/03/04 09:16:38;;;;;;;88.67;31.27;;;9.80;99.90;;;;;;6116566;23;20149;-90
2021/03/04 09:19:03;;;;;;;101.93;34.13;;;9.90;99.90;;;;;;6115584;23;20143;-90
2021/03/04 09:21:29;;;;;;;98.20;31.57;;;9.80;99.90;;;;;;6216127;23;20233;-90
2021/03/04 09:23:55;;;;;;;105.43;31.97;;;9.60;99.90;;;;;;6116391;23;20152;-90
2021/03/04 09:26:21;;;;;;;106.37;31.80;;;9.60;99.90;;;;;;6116289;23;20149;-91
2021/03/04 09:28:47;;;;;;;112.23;31.33;;;9.50;99.90;;;;;;6117946;23;20151;-89
2021/03/04 09:31:19;;;;;;;98.33;29.83;;;9.50;99.90;;;;;;6117275;23;20526;-91
2021/03/04 09:33:56;;;;;;;111.50;33.17;;;9.40;99.90;;;;;;6116239;23;20586;-90
2021/03/04 09:36:21;;;;;;;103.70;32.07;;;9.60;99.90;;;;;;6114475;23;20572;-90
2021/03/04 09:38:51;;;;;;;111.10;31.57;;;9.70;99.90;;;;;;6115786;23;20152;-90
2021/03/04 09:41:18;;;;;;;98.90;30.83;;;9.70;99.90;;;;;;6114701;23;20183;-90
2021/03/04 09:43:49;;;;;;;110.00;31.67;;;9.70;99.90;;;;;;6115961;23;20220;-89
2021/03/04 09:46:35;;;;;;;112.17;30.70;;;9.90;99.90;;;;;;6217004;23;20148;-89
2021/03/04 09:49:09;;;;;;;97.93;29.77;;;9.70;99.90;;;;;;6116034;23;20563;-90
2021/03/04 09:51:37;;;;;;;104.73;30.43;;;9.60;99.90;;;;;;6216265;23;20578;-90
2021/03/04 09:54:03;;;;;;;92.63;28.97;;;9.60;99.90;;;;;;6114259;23;20157;-89
2021/03/04 09:56:30;;;;;;;94.97;28.67;;;9.70;99.90;;;;;;6115427;23;20151;-90
2021/03/04 09:58:56;;;;;;;86.43;25.20;;;9.80;99.90;;;;;;6115735;23;20624;-89
2021/03/04 10:01:36;;;;;;;93.57;27.43;;;9.80;99.90;;;;;;6219154;23;20157;-89
2021/03/04 10:04:07;;;;;;;76.80;24.57;;;9.60;99.90;;;;;;6118793;23;20145;-89
2021/03/04 10:06:35;;;;;;;74.43;22.70;;;9.70;99.90;;;;;;6119187;23;20152;-90
2021/03/04 10:09:01;;;;;;;70.00;22.73;;;9.60;99.90;;;;;;6118647;23;20172;-90
2021/03/04 10:11:28;;;;;;;66.27;21.70;;;9.60;99.90;;;;;;6119156;23;20171;-90
2021/03/04 10:13:55;;;;;;;63.77;20.97;;;9.70;99.90;;;;;;6119841;23;20156;-89
2021/03/04 10:16:21;;;;;;;63.07;20.70;;;9.70;99.90;;;;;;6122333;23;20183;-89
2021/03/04 10:18:48;;;;;;;54.80;20.47;;;9.60;99.90;;;;;;6121735;23;20167;-90
2021/03/04 10:21:15;;;;;;;47.90;18.87;;;9.60;99.90;;;;;;6120684;23;20161;-90
2021/03/04 10:23:41;;;;;;;55.13;20.07;;;9.70;99.90;;;;;;6221380;23;20147;-90
2021/03/04 10:26:08;;;;;;;56.73;20.00;;;9.70;99.90;;;;;;6117712;23;20282;-91
2021/03/04 10:45:39;;;;;;;49.73;19.17;;;10.10;99.90;;;;;;6243476;22;20210;-91
2021/03/04 10:48:05;;;;;;;51.03;19.13;;;10.10;99.90;;;;;;6222218;23;20165;-90
2021/03/04 10:50:31;;;;;;;42.97;18.83;;;10.10;99.90;;;;;;6118110;23;20162;-90
2021/03/04 10:53:00;;;;;;;50.57;19.63;;;10.30;99.90;;;;;;6157162;23;20202;-90
2021/03/04 10:55:30;;;;;;;42.17;18.70;;;10.00;99.90;;;;;;6221911;23;20492;-90
2021/03/04 10:57:56;;;;;;;43.70;17.90;;;9.90;99.90;;;;;;6221780;23;20455;-89
2021/03/04 11:00:22;;;;;;;44.43;18.63;;;9.60;99.90;;;;;;6115474;23;20169;-90
2021/03/04 11:02:51;;;;;;;43.60;17.67;;;9.50;99.90;;;;;;6114363;23;20606;-91
2021/03/04 11:05:19;;;;;;;40.87;17.07;;;9.40;99.90;;;;;;6113077;23;20558;-91
2021/03/04 11:07:47;;;;;;;35.10;15.30;;;9.30;99.90;;;;;;6113617;23;20534;-90
2021/03/04 11:10:13;;;;;;;37.73;15.77;;;9.40;99.90;;;;;;6113464;23;20570;-91
2021/03/04 11:12:40;;;;;;;33.60;13.27;;;9.50;99.90;;;;;;6113123;23;20152;-90
2021/03/04 11:15:10;;;;;;;32.50;13.27;;;9.50;99.90;;;;;;6120177;23;20201;-90
2021/03/04 11:17:55;;;;;;;35.93;14.00;;;9.30;99.90;;;;;;6226837;23;20272;-91
2021/03/04 11:20:37;;;;;;;33.50;13.20;;;9.30;99.90;;;;;;6130642;23;20178;-90
2021/03/04 12:01:54;;;;;;;26.17;11.27;;;9.60;99.90;;;;;;6245882;22;20206;-90
2021/03/04 12:04:20;;;;;;;25.40;10.83;;;9.70;99.90;;;;;;6221440;23;20466;-89
2021/03/04 12:06:46;;;;;;;24.73;10.57;;;9.60;99.90;;;;;;6221535;23;20171;-90
2021/03/04 12:09:14;;;;;;;25.77;10.23;;;9.70;99.90;;;;;;6223405;23;20477;-91
2021/03/04 12:11:40;;;;;;;24.77;10.87;;;9.90;99.90;;;;;;6223086;23;20140;-91
2021/03/04 12:14:09;;;;;;;24.13;10.63;;;9.90;99.90;;;;;;6145917;23;20520;-91
2021/03/04 12:16:34;;;;;;;25.67;11.33;;;10.00;99.90;;;;;;6222424;23;20155;-91
2021/03/04 12:19:28;;;;;;;26.03;11.60;;;10.10;99.90;;;;;;6221754;23;20143;-90
2021/03/04 12:22:00;;;;;;;26.77;10.93;;;10.00;99.90;;;;;;6222699;23;20490;-90
2021/03/04 12:24:25;;;;;;;29.90;12.13;;;10.20;99.90;;;;;;6118109;23;20185;-90
2021/03/04 12:26:52;;;;;;;31.97;12.57;;;10.30;99.90;;;;;;6223803;23;20143;-91
2021/03/04 12:29:19;;;;;;;28.43;12.47;;;10.30;99.90;;;;;;6121089;23;20151;-89
2021/03/04 12:31:44;;;;;;;31.93;12.27;;;10.20;99.90;;;;;;6222182;23;20618;-90
2021/03/04 12:34:13;;;;;;;34.00;12.87;;;10.20;99.90;;;;;;6221564;23;20147;-89
2021/03/04 12:36:39;;;;;;;41.90;17.43;;;10.10;99.90;;;;;;6119847;23;20157;-90
2021/03/04 12:39:05;;;;;;;46.73;18.63;;;10.10;99.90;;;;;;6223359;23;20160;-90
2021/03/04 12:41:31;;;;;;;50.57;17.97;;;10.10;99.90;;;;;;6223753;23;20144;-89
2021/03/04 12:43:56;;;;;;;49.53;19.47;;;9.90;99.90;;;;;;6120029;23;20139;-90
2021/03/04 12:46:23;;;;;;;70.87;24.53;;;9.90;99.90;;;;;;6222955;23;20159;-90
2021/03/04 12:48:49;;;;;;;63.20;24.40;;;9.90;99.90;;;;;;6120788;23;20178;-91
2021/03/04 12:51:14;;;;;;;68.73;25.20;;;9.90;99.90;;;;;;6223811;23;20146;-90
2021/03/04 12:53:40;;;;;;;69.50;26.40;;;9.80;99.90;;;;;;6224070;23;20147;-90
2021/03/04 12:56:09;;;;;;;65.90;26.03;;;9.90;99.90;;;;;;6223338;23;20561;-90
2021/03/04 12:58:35;;;;;;;72.60;26.80;;;9.80;99.90;;;;;;6224907;23;20195;-90
2021/03/04 13:01:01;;;;;;;69.73;26.07;;;9.80;99.90;;;;;;6121941;23;20596;-89
2021/03/04 13:03:26;;;;;;;71.60;25.83;;;9.90;99.90;;;;;;6120367;23;20148;-88
2021/03/04 13:05:53;;;;;;;77.60;26.43;;;9.90;99.90;;;;;;6223639;23;20147;-90
2021/03/04 13:08:19;;;;;;;72.57;25.03;;;10.00;99.90;;;;;;6121445;23;20145;-89
2021/03/04 13:10:45;;;;;;;75.63;24.97;;;9.90;99.90;;;;;;6223388;23;20294;-89
2021/03/04 13:13:10;;;;;;;75.93;27.10;;;9.90;99.90;;;;;;6123509;23;20146;-90
2021/03/04 13:15:36;;;;;;;92.17;31.77;;;9.90;99.90;;;;;;6116335;23;20279;-90
2021/03/04 13:18:02;;;;;;;104.70;31.23;;;9.80;99.90;;;;;;6120073;23;20234;-90
2021/03/04 13:20:27;;;;;;;92.87;30.47;;;9.60;99.90;;;;;;6116902;23;20160;-90
2021/03/04 13:22:53;;;;;;;78.13;26.83;;;9.50;99.90;;;;;;6117765;23;20159;-90
2021/03/04 13:25:19;;;;;;;74.73;26.83;;;9.20;99.90;;;;;;6221389;23;20221;-89
2021/03/04 13:27:44;;;;;;;83.63;26.30;;;9.30;99.90;;;;;;6117531;23;20485;-89
2021/03/04 13:30:11;;;;;;;85.50;27.83;;;9.50;99.90;;;;;;6116033;23;20155;-89
2021/03/04 13:32:36;;;;;;;93.53;28.37;;;9.30;99.90;;;;;;6218126;23;20596;-91
2021/03/04 13:35:02;;;;;;;90.30;27.37;;;9.10;99.90;;;;;;6118298;23;20179;-89
2021/03/04 13:37:28;;;;;;;90.80;27.27;;;8.90;99.90;;;;;;6117000;23;20150;-89
2021/03/04 13:39:54;;;;;;;100.83;28.33;;;8.70;99.90;;;;;;6117670;23;20143;-89
2021/03/04 13:45:42;;;;;;;110.30;27.27;;;8.50;99.90;;;;;;6245266;23;20150;-89
2021/03/04 13:48:09;;;;;;;108.27;29.40;;;8.70;99.90;;;;;;6117517;23;20148;-90
2021/03/04 13:50:34;;;;;;;118.50;30.50;;;8.70;99.90;;;;;;6119541;23;20215;-90
2021/03/04 13:53:01;;;;;;;145.50;35.40;;;8.70;99.90;;;;;;6120338;23;20206;-91
2021/03/04 13:55:27;;;;;;;137.40;33.97;;;8.80;99.90;;;;;;6121379;23;20183;-92
2021/03/04 13:57:53;;;;;;;139.13;34.07;;;8.90;99.90;;;;;;6119841;23;20170;-91
2021/03/04 14:00:19;;;;;;;145.50;36.10;;;9.00;99.90;;;;;;6223999;23;20156;-89
2021/03/04 14:02:44;;;;;;;143.40;38.93;;;9.00;99.90;;;;;;6223859;23;20583;-91
2021/03/04 14:05:14;;;;;;;154.93;39.77;;;9.10;99.90;;;;;;6121003;23;20152;-90
2021/03/04 14:07:39;;;;;;;152.03;40.17;;;9.10;99.90;;;;;;6121750;23;20213;-89
2021/03/04 14:10:12;;;;;;;169.33;42.23;;;9.00;99.90;;;;;;6121944;23;20151;-89
2021/03/04 14:12:38;;;;;;;158.97;40.50;;;8.90;99.90;;;;;;6121900;23;20150;-89
2021/03/04 14:15:05;;;;;;;164.70;40.63;;;8.80;99.90;;;;;;6121566;23;20513;-89
2021/03/04 14:17:31;;;;;;;164.53;41.07;;;8.60;99.90;;;;;;6121809;23;20572;-89
2021/03/04 14:19:57;;;;;;;165.23;41.80;;;8.40;99.90;;;;;;6123521;23;20143;-89
2021/03/04 14:22:23;;;;;;;170.10;40.90;;;8.40;99.90;;;;;;6123288;23;20231;-89
2021/03/04 14:24:50;;;;;;;151.73;41.00;;;8.40;99.90;;;;;;6123549;23;20178;-89
2021/03/04 14:27:17;;;;;;;156.43;41.43;;;8.50;99.90;;;;;;6224963;23;20143;-89
2021/03/04 14:29:42;;;;;;;166.97;44.60;;;8.50;99.90;;;;;;6120739;23;20139;-90
2021/03/04 14:32:08;;;;;;;181.30;46.97;;;8.60;99.90;;;;;;6120995;23;20163;-91
2021/03/04 14:34:34;;;;;;;177.90;46.60;;;8.80;99.90;;;;;;6225504;23;20199;-91
2021/03/04 14:37:00;;;;;;;153.27;44.83;;;8.80;99.90;;;;;;6224018;23;20159;-90
2021/03/04 14:39:26;;;;;;;163.33;44.73;;;8.70;99.90;;;;;;6226062;23;20142;-89
2021/03/04 14:41:53;;;;;;;167.93;46.50;;;8.80;99.90;;;;;;6121460;23;20150;-90
2021/03/04 14:44:19;;;;;;;161.77;47.23;;;9.00;99.90;;;;;;6123648;23;20157;-89
2021/03/04 14:46:45;;;;;;;153.90;43.93;;;9.00;99.90;;;;;;6121915;23;20230;-90
2021/03/04 14:49:11;;;;;;;177.23;49.63;;;9.00;99.90;;;;;;6228481;23;20158;-90
2021/03/04 14:51:39;;;;;;;173.90;50.63;;;8.90;99.90;;;;;;6126290;23;20151;-89
2021/03/04 14:54:04;;;;;;;177.93;49.30;;;9.00;99.90;;;;;;6124118;23;20226;-90
2021/03/04 15:00:04;;;;;;;167.10;51.37;;;9.20;99.90;;;;;;6244132;22;20716;-92
2021/03/04 15:02:30;;;;;;;166.10;49.87;;;9.10;99.90;;;;;;6117512;23;20167;-89
2021/03/04 15:04:55;;;;;;;158.57;49.50;;;9.10;99.90;;;;;;6219164;23;20144;-90
2021/03/04 15:07:21;;;;;;;152.03;44.50;;;8.90;99.90;;;;;;6126993;23;20230;-89
2021/03/04 15:09:48;;;;;;;147.17;46.53;;;8.90;99.90;;;;;;6224274;23;20147;-89
2021/03/04 15:12:13;;;;;;;155.80;47.43;;;9.00;99.90;;;;;;6223667;23;20168;-89
2021/03/04 15:14:39;;;;;;;156.77;46.20;;;8.90;99.90;;;;;;6223201;23;20168;-90
2021/03/04 15:17:05;;;;;;;148.07;45.67;;;9.00;99.90;;;;;;6219714;23;20179;-89
2021/03/04 15:19:31;;;;;;;138.63;44.03;;;9.00;99.90;;;;;;6219293;23;20155;-90
2021/03/04 15:22:00;;;;;;;131.43;43.47;;;9.00;99.90;;;;;;6220006;23;20514;-90
2021/03/04 15:24:26;;;;;;;141.77;43.40;;;9.00;99.90;;;;;;6117321;23;20175;-90
2021/03/04 15:26:52;;;;;;;128.30;39.30;;;8.90;99.90;;;;;;6116022;23;20152;-90
2021/03/04 15:29:18;;;;;;;125.83;40.17;;;8.90;99.90;;;;;;6219220;23;20171;-89
2021/03/04 15:31:44;;;;;;;118.03;38.80;;;8.80;99.90;;;;;;6218182;23;20809;-89
2021/03/04 15:34:14;;;;;;;114.70;39.83;;;8.80;99.90;;;;;;6125437;23;20139;-90
2021/03/04 15:36:41;;;;;;;110.50;36.57;;;8.90;99.90;;;;;;6117187;23;20565;-90
2021/03/04 15:39:08;;;;;;;103.53;34.67;;;8.90;99.90;;;;;;6217422;23;20140;-91
2021/03/04 15:41:34;;;;;;;99.67;33.10;;;8.90;99.90;;;;;;6115582;23;20151;-90
2021/03/04 15:44:00;;;;;;;92.20;32.53;;;8.90;99.90;;;;;;6116519;23;20535;-90
2021/03/04 15:46:25;;;;;;;93.97;31.67;;;8.80;99.90;;;;;;6219166;23;20160;-90
2021/03/04 15:48:52;;;;;;;92.00;32.13;;;8.70;99.90;;;;;;6117363;23;20145;-90
2021/03/04 15:51:18;;;;;;;93.50;32.10;;;8.80;99.90;;;;;;6219630;23;20508;-89
2021/03/04 15:53:43;;;;;;;95.17;32.33;;;8.90;99.90;;;;;;6218734;23;20178;-91
2021/03/04 15:56:09;;;;;;;89.10;33.37;;;9.00;99.90;;;;;;6220327;23;20270;-89
2021/03/04 15:58:37;;;;;;;91.80;33.07;;;9.00;99.90;;;;;;6219562;23;20318;-90
2021/03/04 16:01:03;;;;;;;90.77;30.87;;;9.10;99.90;;;;;;6117155;23;20605;-91
2021/03/04 16:03:31;;;;;;;87.30;31.63;;;8.90;99.90;;;;;;6116467;23;20365;-90
2021/03/04 16:05:57;;;;;;;86.57;31.50;;;8.80;99.90;;;;;;6115664;23;20580;-91
2021/03/04 16:08:23;;;;;;;87.40;31.03;;;8.80;99.90;;;;;;6118179;23;20158;-91
2021/03/04 16:10:51;;;;;;;96.73;33.60;;;8.70;99.90;;;;;;6119631;23;20222;-90
2021/03/04 16:13:17;;;;;;;96.20;34.37;;;8.80;99.90;;;;;;6119335;23;20490;-89
2021/03/04 16:15:53;;;;;;;112.17;36.33;;;8.80;99.90;;;;;;6218406;23;20183;-93
2021/03/04 16:18:20;;;;;;;118.53;37.93;;;8.90;99.90;;;;;;6118197;23;20262;-91
2021/03/04 16:20:50;;;;;;;109.70;37.13;;;8.80;99.90;;;;;;6116624;23;20423;-90
2021/03/04 16:23:17;;;;;;;116.50;38.73;;;8.90;99.90;;;;;;6115735;23;20147;-89
2021/03/04 16:25:43;;;;;;;112.33;37.07;;;8.90;99.90;;;;;;6114912;23;20171;-90
2021/03/04 16:28:09;;;;;;;106.93;34.53;;;8.90;99.90;;;;;;6118308;23;20160;-89
2021/03/04 16:30:35;;;;;;;109.63;34.83;;;8.90;99.90;;;;;;6117058;23;20159;-89
2021/03/04 16:33:01;;;;;;;94.17;33.13;;;8.90;99.90;;;;;;6116207;23;20162;-89
2021/03/04 16:35:28;;;;;;;95.60;31.20;;;8.90;99.90;;;;;;6119663;23;20627;-92
2021/03/04 16:37:54;;;;;;;98.07;33.87;;;8.90;99.90;;;;;;6118113;23;20573;-92
2021/03/04 16:40:23;;;;;;;94.87;32.33;;;8.90;99.90;;;;;;6120219;23;20212;-90
2021/03/04 16:42:48;;;;;;;90.93;32.40;;;8.90;99.90;;;;;;6118277;23;20477;-89
2021/03/04 16:45:15;;;;;;;85.27;31.97;;;8.90;99.90;;;;;;6218900;23;20163;-90
2021/03/04 16:48:30;;;;;;;83.97;31.23;;;8.90;99.90;;;;;;6117793;23;20147;-96
2021/03/04 16:50:57;;;;;;;79.77;29.27;;;8.90;99.90;;;;;;6116234;23;20155;-91
2021/03/04 16:53:23;;;;;;;77.30;29.60;;;9.00;99.90;;;;;;6115499;23;20584;-88
2021/03/04 16:55:48;;;;;;;84.57;30.03;;;8.90;99.90;;;;;;6116810;23;20258;-91
2021/03/04 16:58:14;;;;;;;90.40;29.73;;;8.90;99.90;;;;;;6117462;23;20475;-91
2021/03/04 17:00:40;;;;;;;86.37;29.97;;;8.70;99.90;;;;;;6117089;23;20155;-91
2021/03/04 17:03:06;;;;;;;75.37;27.70;;;8.80;99.90;;;;;;6221758;23;20144;-92
2021/03/04 17:05:31;;;;;;;82.73;28.30;;;8.60;99.90;;;;;;6117307;23;20159;-88
2021/03/04 17:07:57;;;;;;;69.17;26.30;;;8.60;99.90;;;;;;6116923;23;20201;-89
2021/03/04 17:11:15;;;;;;;68.20;25.67;;;8.60;99.90;;;;;;6117277;23;20593;-93
2021/03/04 17:13:41;;;;;;;66.50;25.37;;;8.60;99.90;;;;;;6110830;23;20615;-89
2021/03/04 17:16:07;;;;;;;55.83;23.17;;;8.60;99.90;;;;;;6112223;23;20180;-92
2021/03/04 17:18:32;;;;;;;60.03;23.43;;;8.70;99.90;;;;;;6115697;23;20537;-90
2021/03/04 17:21:00;;;;;;;61.73;23.27;;;8.80;99.90;;;;;;6216916;23;20162;-91
2021/03/04 17:23:26;;;;;;;55.33;23.40;;;8.80;99.90;;;;;;6116836;23;20171;-88
2021/03/04 17:25:51;;;;;;;57.03;23.20;;;8.80;99.90;;;;;;6217176;23;20163;-88
2021/03/04 17:28:18;;;;;;;58.53;22.90;;;8.70;99.90;;;;;;6114923;23;20546;-88
2021/03/04 17:30:47;;;;;;;53.90;22.60;;;8.80;99.90;;;;;;6114849;23;20170;-89
2021/03/04 17:33:14;;;;;;;51.53;21.33;;;8.60;99.90;;;;;;6115094;23;20152;-90
2021/03/04 17:35:40;;;;;;;48.90;20.70;;;8.60;99.90;;;;;;6119882;23;20183;-90
2021/03/04 17:38:05;;;;;;;48.90;21.23;;;8.60;99.90;;;;;;6120435;23;20152;-90
2021/03/04 17:40:31;;;;;;;44.47;20.40;;;8.70;99.90;;;;;;6116029;23;20479;-89
2021/03/04 17:43:28;;;;;;;46.33;19.40;;;8.60;99.90;;;;;;6119488;23;20149;-94
2021/03/04 17:45:56;;;;;;;42.30;19.23;;;8.50;99.90;;;;;;6221627;23;20459;-90
2021/03/04 17:48:21;;;;;;;47.67;19.43;;;8.60;99.90;;;;;;6115806;23;20467;-89
2021/03/04 17:50:47;;;;;;;45.40;18.60;;;8.60;99.90;;;;;;6116312;23;20161;-90
2021/03/04 17:53:13;;;;;;;43.07;19.57;;;8.50;99.90;;;;;;6116516;23;20198;-90
2021/03/04 17:55:39;;;;;;;40.87;18.83;;;8.50;99.90;;;;;;6118242;23;20179;-90
2021/03/04 17:58:04;;;;;;;40.13;17.60;;;8.60;99.90;;;;;;6116317;23;20172;-91
2021/03/04 18:00:30;;;;;;;46.47;18.40;;;8.70;99.90;;;;;;6220715;23;20169;-89
2021/03/04 18:02:58;;;;;;;39.10;19.20;;;8.60;99.90;;;;;;6117569;23;20159;-92
2021/03/04 18:05:48;;;;;;;48.00;19.43;;;8.50;99.90;;;;;;6117730;23;20164;-93
2021/03/04 18:08:14;;;;;;;38.80;18.70;;;8.50;99.90;;;;;;6118820;23;20153;-89
2021/03/04 18:10:39;;;;;;;42.67;19.07;;;8.50;99.90;;;;;;6221591;23;20180;-92
2021/03/04 18:13:05;;;;;;;44.47;19.43;;;8.50;99.90;;;;;;6116224;23;20505;-90
2021/03/04 18:15:31;;;;;;;45.07;19.40;;;8.50;99.90;;;;;;6117075;23;20211;-88
2021/03/04 18:17:59;;;;;;;43.53;20.13;;;8.50;99.90;;;;;;6221697;23;20624;-90
2021/03/04 18:20:25;;;;;;;42.60;19.93;;;8.40;99.90;;;;;;6118219;23;20148;-89
2021/03/04 18:22:51;;;;;;;49.30;20.73;;;8.50;99.90;;;;;;6116714;23;20151;-92
2021/03/04 18:25:16;;;;;;;45.50;21.80;;;8.50;99.90;;;;;;6117381;23;20464;-91
2021/03/04 18:27:42;;;;;;;48.03;23.63;;;8.60;99.90;;;;;;6218596;23;20601;-92
2021/03/04 18:30:08;;;;;;;50.93;23.93;;;8.70;99.90;;;;;;6118841;23;20584;-89
2021/03/04 18:32:34;;;;;;;51.40;24.63;;;8.70;99.90;;;;;;6118669;23;20171;-91
2021/03/04 18:35:00;;;;;;;51.20;24.57;;;8.60;99.90;;;;;;6220846;23;20198;-92
2021/03/04 18:37:25;;;;;;;53.30;24.53;;;8.60;99.90;;;;;;6118655;23;20155;-90
2021/03/04 18:39:51;;;;;;;53.87;25.40;;;8.60;99.90;;;;;;6118097;23;20184;-89
2021/03/04 18:42:17;;;;;;;53.57;26.73;;;8.60;99.90;;;;;;6138936;22;20168;-91
2021/03/04 18:44:44;;;;;;;55.27;26.37;;;8.60;99.90;;;;;;6140503;22;20151;-90
2021/03/04 18:47:10;;;;;;;45.77;25.13;;;8.30;99.90;;;;;;6138870;22;20155;-92
2021/03/04 18:50:34;;;;;;;54.30;25.63;;;8.40;99.90;;;;;;6140356;22;20158;-92
2021/03/04 18:53:42;;;;;;;;;;;;;;;;;;;;;
2021/03/04 18:56:44;;;;;;;;;;;;;;;;;;;;;
2021/03/04 18:59:20;;;;;;;;;;;;;;;;;;;;;
2021/03/04 19:02:05;;;;;;;46.13;23.00;;;8.50;99.90;;;;;;6247798;23;20218;-90
2021/03/04 19:04:38;;;;;;;45.87;24.60;;;8.50;99.90;;;;;;6118214;23;20572;-90
2021/03/04 19:07:22;;;;;;;;;;;;;;;;;;;;;
2021/03/04 19:10:02;;;;;;;41.30;23.30;;;8.50;99.90;;;;;;6247895;23;20211;-90
2021/03/04 19:12:30;;;;;;;38.13;21.07;;;8.60;99.90;;;;;;6118102;23;20159;-90
2021/03/04 19:15:01;;;;;;;38.57;21.27;;;8.50;99.90;;;;;;6118495;23;20270;-90
2021/03/04 19:17:35;;;;;;;35.27;20.77;;;8.50;99.90;;;;;;6120361;23;20573;-90
2021/03/04 19:20:06;;;;;;;35.77;20.20;;;8.50;99.90;;;;;;6220849;23;20151;-91
2021/03/04 19:22:42;;;;;;;35.73;19.07;;;8.50;99.90;;;;;;6118963;23;20148;-91
2021/03/04 19:25:44;;;;;;;35.57;21.10;;;8.50;99.90;;;;;;6119327;23;20154;-90
2021/03/04 19:28:13;;;;;;;36.77;21.00;;;8.40;99.90;;;;;;6221756;23;20226;-93
2021/03/04 19:30:43;;;;;;;32.30;19.53;;;8.30;99.90;;;;;;6116339;23;20155;-92
2021/03/04 19:33:09;;;;;;;33.77;19.20;;;8.40;99.90;;;;;;6116702;23;20226;-92
2021/03/04 19:35:35;;;;;;;28.10;18.93;;;8.40;99.90;;;;;;6116211;23;20566;-90
2021/03/04 19:38:02;;;;;;;33.63;20.07;;;8.40;99.90;;;;;;6117715;23;20159;-93
2021/03/04 19:40:27;;;;;;;34.03;18.80;;;8.40;99.90;;;;;;6116397;23;20159;-93
2021/03/04 19:43:08;;;;;;;30.57;16.93;;;8.30;99.90;;;;;;6116976;23;20155;-92
2021/03/04 19:45:36;;;;;;;29.47;17.90;;;8.40;99.90;;;;;;6118542;23;20155;-90
2021/03/04 19:48:07;;;;;;;29.83;17.73;;;8.20;99.90;;;;;;6116538;23;20239;-92
2021/03/04 19:50:33;;;;;;;28.83;18.47;;;8.20;99.90;;;;;;6116828;23;20573;-93
2021/03/04 19:53:01;;;;;;;32.03;17.07;;;8.10;99.90;;;;;;6117461;23;20182;-92
2021/03/04 19:59:15;;;;;;;29.50;17.87;;;8.00;99.90;;;;;;6245946;22;20178;-93
2021/03/04 20:01:42;;;;;;;27.10;16.80;;;8.00;99.90;;;;;;6090749;23;20197;-90
2021/03/04 20:04:19;;;;;;;27.27;16.57;;;8.00;99.90;;;;;;6112896;23;20561;-90
2021/03/04 20:06:44;;;;;;;29.80;16.03;;;8.10;99.90;;;;;;6115915;23;20147;-90
2021/03/04 20:09:14;;;;;;;23.33;15.83;;;8.10;99.90;;;;;;6116621;23;20170;-90
2021/03/04 20:11:40;;;;;;;25.63;14.50;;;8.20;99.90;;;;;;6116376;23;20174;-90